Archival Weather

Moundou

Moundou, Chad (FTTD)

Report from: Friday, April 19, 2024 1:00 PM WAT
Current time: Monday, July 22, 2024 12:35 PM WAT

Current weather – Weather history – Daily summaries
Weather forecast

Temperature36.0°C (96.8°F)
Heat index38.2°C (100.7°F)
Dew point19.0°C (66.2°F)
Winds 4 kts (2.1 m/s, 4.6 mph) South (180°)
Clouds Sky clear
Altimeter29.83 in.Hg (1010 mB)
Relative humidity37 %
Density altitude2,785 ft. (849 m)
Remarks Ceiling and visibility OK
Flight conditions Visual Meteorological Conditions
Raw dataFTTD 191200Z 18004KT CAVOK 36/19 Q1010
An error has occurred. This application may no longer respond until reloaded. Reload 🗙